Flight Track Log - Related Links

Times and Time Zones

All times are in EDT time to prevent confusion due to time zone crossing. See the MTN8311 flight status page for this flight to view local times or setup timezone preferences in your user account.

Time Position Orientation Groundspeed Altitude Reporting Facility
EDT Latitude Longitude Course Direction KTS MPH feet Rate Location/Type
Fri 10:25:20 AM 39.2167 -76.7000 322° Northwest 90 104 2,200  Level Potomac TRACON
Fri 10:26:20 AM 39.2500 -76.7167 339° North 87 100 3,200 900 Climbing Potomac TRACON
Fri 10:27:20 AM 39.2667 -76.7333 322° Northwest 99 114 4,000 850 Climbing Potomac TRACON
Fri 10:28:20 AM 39.2833 -76.7500 322° Northwest 113 130 4,900 550 Climbing Potomac TRACON
Fri 10:29:20 AM 39.3167 -76.7667 339° North 143 165 5,100 50 Climbing Potomac TRACON
Fri 10:30:20 AM 39.3667 -76.7667 360° North 142 163 5,000 -50 Descending Potomac TRACON
Fri 10:31:20 AM 39.3833 -76.7333 57° Northeast 151 174 5,000 50 Level Potomac TRACON
Fri 10:32:20 AM 39.4167 -76.6833 49° Northeast 156 180 5,100  Climbing Potomac TRACON
Fri 10:33:21 AM 39.4333 -76.6333 67° East 159 183 5,000 -50 Descending Potomac TRACON
Fri 10:34:21 AM 39.4667 -76.5833 49° Northeast 159 183 5,000  Level Potomac TRACON
Fri 10:35:21 AM 39.4833 -76.5333 67° East 158 182 5,000 48 Level Potomac TRACON
Fri 10:36:27 AM 39.5167 -76.4833 49° Northeast 156 180 5,100  Climbing Potomac TRACON
Fri 10:37:27 AM 39.5333 -76.4333 67° East 159 183 5,000 -50 Descending Potomac TRACON
Fri 10:38:27 AM 39.5667 -76.3833 49° Northeast 157 181 5,000 48 Level Potomac TRACON
Fri 10:39:33 AM 39.5833 -76.3333 67° East 155 178 5,100  Climbing Potomac TRACON
Fri 10:40:34 AM 39.6167 -76.3000 38° Northeast 157 181 5,000 -67 Descending Potomac TRACON
Fri 10:42:31 AM 39.6500 -76.2000 67° East 161 185 4,900 -34 Descending Philadelphia TRACON
Fri 10:43:31 AM 39.6833 -76.1500 49° Northeast 159 183 4,900  Level Philadelphia TRACON
Fri 10:44:31 AM 39.7000 -76.1000 67° East 159 183 4,900  Level Philadelphia TRACON
Fri 10:45:31 AM 39.7333 -76.0667 38° Northeast 157 181 4,900 50 Level Philadelphia TRACON
Fri 10:46:32 AM 39.7500 -76.0167 67° East 159 183 5,000  Climbing Philadelphia TRACON
Fri 10:47:37 AM 39.7833 -75.9500 57° Northeast 163 188 4,900 -48 Descending Philadelphia TRACON
Fri 10:48:38 AM 39.8000 -75.9000 67° East 159 183 4,900  Level Philadelphia TRACON
Fri 10:49:38 AM 39.8333 -75.8667 38° Northeast 156 180 4,900  Level Philadelphia TRACON
Fri 10:50:44 AM 39.8500 -75.8000 72° East 156 180 4,900  Level Philadelphia TRACON
Fri 10:51:38 AM 39.8667 -75.7667 57° Northeast 156 180 4,900  Level Philadelphia TRACON
Fri 10:52:38 AM 39.9000 -75.7167 49° Northeast 158 182 4,900 50 Level Philadelphia TRACON
Fri 10:53:38 AM 39.9167 -75.6667 66° East 156 180 5,000 50 Climbing Philadelphia TRACON
Fri 10:54:38 AM 39.9500 -75.6167 49° Northeast 155 178 5,000  Level Philadelphia TRACON
Fri 10:55:32 AM 39.9667 -75.5833 57° Northeast 159 183 5,000  Level Philadelphia TRACON
Fri 10:56:32 AM 39.9833 -75.5167 72° East 157 181 5,000 -48 Level Philadelphia TRACON
Fri 10:57:38 AM 40.0000 -75.4667 66° East 158 182 4,900  Descending Philadelphia TRACON
Fri 10:58:38 AM 40.0333 -75.4167 49° Northeast 158 182 5,000  Climbing Philadelphia TRACON
Fri 10:59:38 AM 40.0500 -75.3667 66° East 158 182 4,900  Descending Philadelphia TRACON
Fri 11:00:33 AM 40.0667 -75.3333 57° Northeast 159 183 5,000  Climbing Philadelphia TRACON
Fri 11:01:33 AM 40.1000 -75.2833 49° Northeast 159 183 4,900 -50 Descending Philadelphia TRACON
Fri 11:02:33 AM 40.1167 -75.2333 66° East 158 182 4,900  Level Philadelphia TRACON
Fri 11:03:39 AM 40.1333 -75.1667 72° East 160 184 4,900  Level Philadelphia TRACON
Fri 11:04:39 AM 40.1667 -75.1167 49° Northeast 158 182 4,900  Level Philadelphia TRACON
Fri 11:05:33 AM 40.1833 -75.0833 57° Northeast 157 181 4,900 53 Level Philadelphia TRACON
Fri 11:06:33 AM 40.2000 -75.0333 66° East 157 181 5,000  Climbing Philadelphia TRACON
Fri 11:07:29 AM 40.2167 -74.9833 66° East 159 183 4,900  Descending New York TRACON
Fri 11:08:23 AM 40.2333 -74.9333 66° East 155 178 5,000 53 Climbing New York TRACON
Fri 11:09:23 AM 40.2667 -74.9000 37° Northeast 157 181 5,000  Level New York TRACON
Fri 11:10:29 AM 40.3000 -74.8333 57° Northeast 168 193 5,000  Level New York TRACON
Fri 11:11:23 AM 40.3167 -74.8000 57° Northeast 168 193 5,000  Level New York TRACON
Fri 11:12:23 AM 40.3333 -74.7333 72° East 169 194 5,000  Level New York TRACON
Fri 11:13:23 AM 40.3667 -74.6833 51° Northeast 168 193 5,000  Level New York TRACON
Fri 11:14:23 AM 40.3833 -74.6333 66° East 168 193 5,000 -50 Level New York TRACON
Fri 11:15:23 AM 40.4000 -74.5667 72° East 170 196 4,900 -400 Descending New York TRACON
Fri 11:16:23 AM 40.4167 -74.5167 66° East 176 203 4,200 -800 Descending New York TRACON
Fri 11:17:23 AM 40.4500 -74.4667 49° Northeast 177 204 3,300 -600 Descending New York TRACON
Fri 11:18:23 AM 40.4667 -74.4000 72° East 168 193 3,000 -150 Descending New York TRACON
Fri 11:19:23 AM 40.4833 -74.3500 66° East 162 186 3,000  Level New York TRACON
Fri 11:20:29 AM 40.5167 -74.2833 57° Northeast 167 192 3,000 -143 Level New York TRACON
Fri 11:21:29 AM 40.5500 -74.2500 37° Northeast 170 196 2,700 -550 Descending New York TRACON
Fri 11:22:29 AM 40.5833 -74.2333 21° North 163 188 1,900 -737 Descending New York TRACON
Fri 11:23:23 AM 40.6167 -74.2000 37° Northeast 159 183 1,300 -800 Descending New York TRACON
Fri 11:24:29 AM 40.6667 -74.1833 14° North 151 174 300 -909 Descending New York TRACON
Fri 11:26:00 AM 40.6833 -74.1667 52° Northeast  Level FlightAware Approximate
Fri 11:33:00 AM 40.6925 -74.1687 52° Northeast  Level Estimated

Login

Don't have an account? Register now (free) for customized features, flight alerts, and more!